Time;durP1;ratioP1;P1;durP2;ratioP2;P2;SDS_P1;SDS_P2;PMS_P1;PMS_P2;Temp;Humidity;BMP_temperature;BMP_pressure;BME280_temperature;BME280_humidity;BME280_pressure;Samples;Min_cycle;Max_cycle;Signal;HPM_P1;HPM_P2
2023/09/24 00:00:10;;;;;;;;;;;16.00;99.90;;;;;;5059708;28;20285;-62
2023/09/24 00:02:36;;;;;;;;;;;16.10;99.90;;;;;;5059655;28;19917;-62
2023/09/24 00:05:05;;;;;;;;;;;16.00;99.90;;;;;;5059642;28;19984;-62
2023/09/24 00:07:30;;;;;;;;;;;15.90;99.90;;;;;;5059336;28;19913;-62
2023/09/24 00:10:00;;;;;;;;;;;15.90;99.90;;;;;;5041598;28;19924;-63
2023/09/24 00:12:28;;;;;;;;;;;15.90;99.90;;;;;;5041574;28;20064;-63
2023/09/24 00:14:54;;;;;;;;;;;15.90;99.90;;;;;;5059280;28;19987;-63
2023/09/24 00:17:19;;;;;;;;;;;15.90;99.90;;;;;;5059384;28;19909;-63
2023/09/24 00:19:46;;;;;;;;;;;15.90;99.90;;;;;;5059440;28;19992;-63
2023/09/24 00:22:12;;;;;;;;;;;16.00;99.90;;;;;;5059345;28;19915;-64
2023/09/24 00:24:38;;;;;;;;;;;15.90;99.90;;;;;;5041406;28;19963;-63
2023/09/24 00:27:04;;;;;;;;;;;15.90;99.90;;;;;;5059300;28;19913;-63
2023/09/24 00:29:31;;;;;;;;;;;15.90;99.90;;;;;;5041215;28;19912;-63
2023/09/24 00:31:56;;;;;;;;;;;15.90;99.90;;;;;;5041221;28;19920;-63
2023/09/24 00:34:22;;;;;;;;;;;15.80;99.90;;;;;;5041164;28;19909;-63
2023/09/24 00:36:51;;;;;;;;;;;15.80;99.90;;;;;;5041055;28;19962;-63
2023/09/24 00:39:17;;;;;;;;;;;15.90;99.90;;;;;;5041135;28;19909;-63
2023/09/24 00:41:45;;;;;;;;;;;15.80;99.90;;;;;;5058879;28;20257;-63
2023/09/24 00:44:14;;;;;;;;;;;15.80;99.90;;;;;;5058866;28;19917;-63
2023/09/24 00:46:43;;;;;;;;;;;15.80;99.90;;;;;;5058995;28;19916;-63
2023/09/24 00:49:09;;;;;;;;;;;15.80;99.90;;;;;;5058739;28;19913;-64
2023/09/24 00:51:35;;;;;;;;;;;15.90;99.90;;;;;;5040911;28;19908;-63
2023/09/24 00:54:01;;;;;;;;;;;15.90;99.90;;;;;;5040955;28;19915;-63
2023/09/24 00:56:27;;;;;;;;;;;15.90;99.90;;;;;;5040825;28;19999;-64
2023/09/24 00:58:54;;;;;;;;;;;15.90;99.90;;;;;;5057249;28;19958;-63
2023/09/24 01:01:24;;;;;;;;;;;15.90;99.90;;;;;;5058386;28;19962;-63
2023/09/24 01:03:50;;;;;;;;;;;15.90;99.90;;;;;;5040535;28;20377;-64
2023/09/24 01:06:19;;;;;;;;;;;15.80;99.90;;;;;;5058426;28;20387;-63
2023/09/24 01:08:45;;;;;;;;;;;15.90;99.90;;;;;;5040171;28;19912;-63
2023/09/24 01:11:12;;;;;;;;;;;15.90;99.90;;;;;;5040567;28;19998;-64
2023/09/24 01:13:41;;;;;;;;;;;15.90;99.90;;;;;;5040338;28;19909;-64
2023/09/24 01:16:08;;;;;;;;;;;15.60;99.90;;;;;;5040526;28;19913;-64
2023/09/24 01:18:37;;;;;;;;;;;15.60;99.90;;;;;;5058203;28;20381;-64
2023/09/24 01:21:05;;;;;;;;;;;15.60;99.90;;;;;;5058273;28;19909;-64
2023/09/24 01:23:37;;;;;;;;;;;15.80;99.90;;;;;;5040310;28;20363;-64
2023/09/24 01:26:03;;;;;;;;;;;15.70;99.90;;;;;;5058129;28;19909;-64
2023/09/24 01:28:30;;;;;;;;;;;15.70;99.90;;;;;;5040199;28;19943;-63
2023/09/24 01:30:56;;;;;;;;;;;15.70;99.90;;;;;;5040133;28;19908;-63
2023/09/24 01:33:23;;;;;;;;;;;15.70;99.90;;;;;;5040164;28;19935;-63
2023/09/24 01:35:50;;;;;;;;;;;15.60;99.90;;;;;;5058141;28;20261;-64
2023/09/24 01:38:16;;;;;;;;;;;15.50;99.90;;;;;;5023507;28;19913;-63
2023/09/24 01:40:42;;;;;;;;;;;15.50;99.90;;;;;;5058184;28;19916;-64
2023/09/24 01:43:08;;;;;;;;;;;15.50;99.90;;;;;;5057659;28;19909;-64
2023/09/24 01:45:34;;;;;;;;;;;15.60;99.90;;;;;;5057732;28;19909;-64
2023/09/24 01:48:03;;;;;;;;;;;15.50;99.90;;;;;;5057724;28;19915;-64
2023/09/24 01:50:29;;;;;;;;;;;15.60;99.90;;;;;;5039624;28;20277;-64
2023/09/24 01:52:58;;;;;;;;;;;15.70;99.90;;;;;;5057634;28;19916;-64
2023/09/24 01:55:25;;;;;;;;;;;15.60;99.90;;;;;;5039753;28;19915;-63
2023/09/24 01:57:51;;;;;;;;;;;15.60;99.90;;;;;;5058475;28;19909;-63
2023/09/24 02:00:26;;;;;;;;;;;15.50;99.90;;;;;;5059586;28;19909;-63
2023/09/24 02:02:54;;;;;;;;;;;15.50;99.90;;;;;;5076198;28;20388;-64
2023/09/24 02:05:20;;;;;;;;;;;15.40;99.90;;;;;;5059653;28;19908;-64
2023/09/24 02:07:49;;;;;;;;;;;15.50;99.90;;;;;;5077575;28;19916;-64
2023/09/24 02:10:18;;;;;;;;;;;15.50;99.90;;;;;;5077187;28;19954;-64
2023/09/24 02:12:45;;;;;;;;;;;15.30;99.90;;;;;;5076386;28;20006;-64
2023/09/24 02:15:12;;;;;;;;;;;15.30;99.90;;;;;;5042866;28;20389;-64
2023/09/24 02:17:39;;;;;;;;;;;15.30;99.90;;;;;;5059220;28;19909;-64
2023/09/24 02:20:18;;;;;;;;;;;15.30;99.90;;;;;;5059099;28;19909;-64
2023/09/24 02:22:48;;;;;;;;;;;15.40;99.90;;;;;;5059016;28;19908;-64
2023/09/24 02:25:15;;;;;;;;;;;15.40;99.90;;;;;;5059004;28;19909;-64
2023/09/24 02:27:41;;;;;;;;;;;15.50;99.90;;;;;;5076903;28;19950;-64
2023/09/24 02:30:08;;;;;;;;;;;15.50;99.90;;;;;;5076946;28;19908;-64
2023/09/24 02:32:34;;;;;;;;;;;15.50;99.90;;;;;;5076728;28;20003;-64
2023/09/24 02:35:00;;;;;;;;;;;15.40;99.90;;;;;;5076845;28;19996;-64
2023/09/24 02:37:28;;;;;;;;;;;15.40;99.90;;;;;;5076539;28;20334;-64
2023/09/24 02:39:54;;;;;;;;;;;15.40;99.90;;;;;;5058837;28;19909;-64
2023/09/24 02:42:20;;;;;;;;;;;15.40;99.90;;;;;;5058679;28;19912;-64
2023/09/24 02:44:48;;;;;;;;;;;15.30;99.90;;;;;;5058677;28;19908;-64
2023/09/24 02:47:15;;;;;;;;;;;15.40;99.90;;;;;;5075193;28;19908;-64
2023/09/24 02:49:41;;;;;;;;;;;15.10;99.90;;;;;;5075387;28;19961;-64
2023/09/24 02:52:08;;;;;;;;;;;15.10;99.90;;;;;;5075262;28;20364;-64
2023/09/24 02:54:34;;;;;;;;;;;15.20;99.90;;;;;;5076376;28;19978;-64
2023/09/24 02:57:00;;;;;;;;;;;15.20;99.90;;;;;;5076466;28;20284;-64
2023/09/24 02:59:25;;;;;;;;;;;15.30;99.90;;;;;;5061035;28;19947;-63
2023/09/24 03:01:52;;;;;;;;;;;15.40;99.90;;;;;;5038557;28;19908;-64
2023/09/24 03:04:18;;;;;;;;;;;15.40;99.90;;;;;;5056327;28;19915;-64
2023/09/24 03:06:45;;;;;;;;;;;15.20;99.90;;;;;;5038208;28;19920;-64
2023/09/24 03:09:12;;;;;;;;;;;15.20;99.90;;;;;;5023144;28;19916;-63
2023/09/24 03:11:37;;;;;;;;;;;15.10;99.90;;;;;;5038310;28;19916;-64
2023/09/24 03:14:03;;;;;;;;;;;15.10;99.90;;;;;;5056147;28;19909;-64
2023/09/24 03:16:29;;;;;;;;;;;15.00;99.90;;;;;;5055979;28;20324;-64
2023/09/24 03:18:55;;;;;;;;;;;15.00;99.90;;;;;;5056114;28;20377;-64
2023/09/24 03:21:21;;;;;;;;;;;14.90;99.90;;;;;;5038161;28;19962;-63
2023/09/24 03:23:47;;;;;;;;;;;14.90;99.90;;;;;;5038152;28;20336;-64
2023/09/24 03:26:16;;;;;;;;;;;14.90;99.90;;;;;;5038253;28;19909;-63
2023/09/24 03:28:42;;;;;;;;;;;14.80;99.90;;;;;;5038075;28;19912;-64
2023/09/24 03:31:13;;;;;;;;;;;14.90;99.90;;;;;;5056071;28;19992;-64
2023/09/24 03:33:39;;;;;;;;;;;14.90;99.90;;;;;;5055888;28;19915;-64
2023/09/24 03:36:07;;;;;;;;;;;14.90;99.90;;;;;;5055870;28;19946;-64
2023/09/24 03:38:33;;;;;;;;;;;14.90;99.90;;;;;;5021531;28;20017;-64
2023/09/24 03:40:59;;;;;;;;;;;14.90;99.90;;;;;;5037894;28;19958;-64
2023/09/24 03:43:25;;;;;;;;;;;14.80;99.90;;;;;;5055684;28;19909;-64
2023/09/24 03:45:51;;;;;;;;;;;14.80;99.90;;;;;;5037955;28;20308;-64
2023/09/24 03:48:17;;;;;;;;;;;14.70;99.90;;;;;;5037910;28;19912;-64
2023/09/24 03:50:44;;;;;;;;;;;14.60;99.90;;;;;;5055537;28;19999;-64
2023/09/24 03:53:10;;;;;;;;;;;14.60;99.90;;;;;;5037345;28;19909;-64
2023/09/24 03:55:37;;;;;;;;;;;14.60;99.90;;;;;;5021443;28;19961;-64
2023/09/24 03:58:08;;;;;;;;;;;14.70;99.90;;;;;;5041773;28;19915;-64
2023/09/24 04:00:34;;;;;;;;;;;14.70;99.90;;;;;;5074440;28;20404;-64
2023/09/24 04:02:59;;;;;;;;;;;14.70;99.90;;;;;;5075607;28;19908;-63
2023/09/24 04:05:25;;;;;;;;;;;14.80;99.90;;;;;;5074355;28;19962;-63
2023/09/24 04:07:52;;;;;;;;;;;14.80;99.90;;;;;;5057469;28;19913;-64
2023/09/24 04:10:19;;;;;;;;;;;14.80;99.90;;;;;;5075405;28;19916;-64
2023/09/24 04:12:51;;;;;;;;;;;14.80;99.90;;;;;;5057474;28;19987;-64
2023/09/24 04:15:18;;;;;;;;;;;14.90;99.90;;;;;;5075604;28;19977;-63
2023/09/24 04:17:46;;;;;;;;;;;14.70;99.90;;;;;;5075490;28;20277;-64
2023/09/24 04:20:15;;;;;;;;;;;14.80;99.90;;;;;;5075610;28;20194;-64
2023/09/24 04:22:44;;;;;;;;;;;14.70;99.90;;;;;;5075444;28;20285;-64
2023/09/24 04:25:17;;;;;;;;;;;14.60;99.90;;;;;;5057462;28;20342;-64
2023/09/24 04:27:43;;;;;;;;;;;14.40;99.90;;;;;;5057461;28;19918;-64
2023/09/24 04:30:16;;;;;;;;;;;14.40;99.90;;;;;;5075347;28;19905;-64
2023/09/24 04:32:43;;;;;;;;;;;14.40;99.90;;;;;;5057792;28;19931;-64
2023/09/24 04:35:12;;;;;;;;;;;14.30;99.90;;;;;;5057360;28;19916;-64
2023/09/24 04:37:39;;;;;;;;;;;14.40;99.90;;;;;;5061170;28;19961;-64
2023/09/24 04:40:06;;;;;;;;;;;14.30;99.90;;;;;;5079111;28;19924;-64
2023/09/24 04:42:32;;;;;;;;;;;14.20;99.90;;;;;;5078867;28;19905;-64
2023/09/24 04:44:58;;;;;;;;;;;14.10;99.90;;;;;;5078955;28;19916;-64
2023/09/24 04:47:24;;;;;;;;;;;14.20;99.90;;;;;;5077629;28;19908;-64
2023/09/24 04:49:50;;;;;;;;;;;14.20;99.90;;;;;;5078886;28;19912;-64
2023/09/24 04:52:16;;;;;;;;;;;14.10;99.90;;;;;;5077603;28;19912;-63
2023/09/24 04:54:41;;;;;;;;;;;14.10;99.90;;;;;;5078497;28;19908;-63
2023/09/24 04:57:09;;;;;;;;;;;14.20;99.90;;;;;;5078241;28;20341;-64
2023/09/24 04:59:35;;;;;;;;;;;14.20;99.90;;;;;;5062109;28;19909;-63
2023/09/24 05:02:01;;;;;;;;;;;14.20;99.90;;;;;;5040862;28;20353;-63
2023/09/24 05:04:26;;;;;;;;;;;14.20;99.90;;;;;;5040787;28;19947;-63
2023/09/24 05:06:54;;;;;;;;;;;14.30;99.90;;;;;;5058314;28;19920;-63
2023/09/24 05:09:21;;;;;;;;;;;14.40;99.90;;;;;;5025337;28;20114;-63
2023/09/24 05:11:46;;;;;;;;;;;14.40;99.90;;;;;;5040451;28;19913;-63
2023/09/24 05:14:12;;;;;;;;;;;14.50;99.90;;;;;;5040529;28;20334;-63
2023/09/24 05:16:39;;;;;;;;;;;14.50;99.90;;;;;;5058398;28;19962;-63
2023/09/24 05:19:06;;;;;;;;;;;14.50;99.90;;;;;;5058336;28;20309;-63
2023/09/24 05:21:32;;;;;;;;;;;14.50;99.90;;;;;;5040597;28;19916;-63
2023/09/24 05:23:58;;;;;;;;;;;14.50;99.90;;;;;;5040371;28;19909;-64
2023/09/24 05:26:24;;;;;;;;;;;14.60;99.90;;;;;;5058029;28;19947;-64
2023/09/24 05:28:50;;;;;;;;;;;14.60;99.90;;;;;;5058040;28;19912;-64
2023/09/24 05:31:16;;;;;;;;;;;14.70;99.90;;;;;;5058111;28;19982;-63
2023/09/24 05:33:44;;;;;;;;;;;14.60;99.90;;;;;;5058031;28;19913;-63
2023/09/24 05:36:10;;;;;;;;;;;14.60;99.90;;;;;;5058012;28;19931;-63
2023/09/24 05:38:36;;;;;;;;;;;14.60;99.90;;;;;;5057954;28;19912;-63
2023/09/24 05:41:02;;;;;;;;;;;14.50;99.90;;;;;;5039889;28;20266;-64
2023/09/24 05:43:28;;;;;;;;;;;14.60;99.90;;;;;;5057786;28;20282;-63
2023/09/24 05:45:54;;;;;;;;;;;14.50;99.90;;;;;;5057886;28;19905;-63
2023/09/24 05:48:20;;;;;;;;;;;14.50;99.90;;;;;;5056436;28;20377;-64
2023/09/24 05:50:46;;;;;;;;;;;14.50;99.90;;;;;;5057709;28;20137;-64
2023/09/24 05:53:12;;;;;;;;;;;14.60;99.90;;;;;;5057644;28;19931;-64
2023/09/24 05:55:38;;;;;;;;;;;14.70;99.90;;;;;;5039660;28;20333;-63
2023/09/24 05:58:05;;;;;;;;;;;14.80;99.90;;;;;;5061481;28;19944;-64
2023/09/24 06:00:35;;;;;;;;;;;15.00;99.90;;;;;;5077614;28;20362;-63
2023/09/24 06:03:00;;;;;;;;;;;15.30;99.90;;;;;;5077626;28;19958;-64
2023/09/24 06:05:27;;;;;;;;;;;15.60;99.90;;;;;;5077436;28;19913;-64
2023/09/24 06:07:52;;;;;;;;;;;15.90;99.90;;;;;;5059304;28;19954;-64
2023/09/24 06:10:20;;;;;;;;;;;16.20;99.90;;;;;;5077202;28;19961;-64
2023/09/24 06:12:47;;;;;;;;;;;16.20;99.90;;;;;;5077066;28;20381;-64
2023/09/24 06:15:14;;;;;;;;;;;16.40;99.90;;;;;;5077205;28;20433;-64
2023/09/24 06:17:40;;;;;;;;;;;16.40;99.90;;;;;;5077188;28;19952;-64
2023/09/24 06:20:06;;;;;;;;;;;16.50;99.90;;;;;;5077202;28;19915;-64
2023/09/24 06:22:32;;;;;;;;;;;16.60;99.90;;;;;;5075743;28;19916;-64
2023/09/24 06:24:58;;;;;;;;;;;16.70;99.90;;;;;;5076771;28;20376;-64
2023/09/24 06:27:24;;;;;;;;;;;16.70;99.90;;;;;;5076973;28;19913;-64
2023/09/24 06:29:49;;;;;;;;;;;16.80;99.90;;;;;;5059003;28;20354;-64
2023/09/24 06:32:15;;;;;;;;;;;16.80;99.90;;;;;;5076885;28;19911;-63
2023/09/24 06:34:41;;;;;;;;;;;16.70;99.90;;;;;;5076819;28;19908;-64
2023/09/24 06:37:08;;;;;;;;;;;16.80;99.90;;;;;;5075467;28;20308;-64
2023/09/24 06:39:34;;;;;;;;;;;16.90;99.90;;;;;;5076839;28;19908;-63
2023/09/24 06:42:00;;;;;;;;;;;16.80;99.90;;;;;;5076844;28;19909;-63
2023/09/24 06:44:26;;;;;;;;;;;16.80;99.90;;;;;;5076552;28;19913;-64
2023/09/24 06:46:52;;;;;;;;;;;16.80;99.90;;;;;;5076361;28;19904;-64
2023/09/24 06:49:19;;;;;;;;;;;16.70;99.90;;;;;;5076491;28;20262;-64
2023/09/24 06:51:45;;;;;;;;;;;16.80;99.90;;;;;;5076687;28;19954;-63
2023/09/24 06:54:11;;;;;;;;;;;16.80;99.90;;;;;;5076489;28;19957;-64
2023/09/24 06:56:37;;;;;;;;;;;16.80;99.90;;;;;;5076530;28;19908;-64
2023/09/24 06:59:09;;;;;;;;;;;16.80;99.90;;;;;;5064096;28;19990;-64
2023/09/24 07:01:38;;;;;;;;;;;16.90;99.90;;;;;;5055177;28;19962;-63
2023/09/24 07:04:07;;;;;;;;;;;16.90;99.90;;;;;;5038487;28;19916;-63
2023/09/24 07:06:33;;;;;;;;;;;16.90;99.90;;;;;;5056285;28;20015;-64
2023/09/24 07:08:59;;;;;;;;;;;17.00;99.90;;;;;;5056232;28;19919;-63
2023/09/24 07:11:37;;;;;;;;;;;16.90;99.90;;;;;;5038484;28;19932;-63
2023/09/24 07:14:04;;;;;;;;;;;16.90;99.90;;;;;;5056124;28;19908;-64
2023/09/24 07:16:30;;;;;;;;;;;16.90;99.90;;;;;;5038124;28;19916;-64
2023/09/24 07:18:57;;;;;;;;;;;17.00;99.90;;;;;;5056006;28;19904;-63
2023/09/24 07:21:28;;;;;;;;;;;16.90;99.90;;;;;;5056094;28;19909;-64
2023/09/24 07:23:58;;;;;;;;;;;16.90;99.90;;;;;;5056051;28;19996;-64
2023/09/24 07:26:26;;;;;;;;;;;16.80;99.90;;;;;;5055964;28;19908;-63
2023/09/24 07:28:52;;;;;;;;;;;16.80;99.90;;;;;;5038120;28;19920;-64
2023/09/24 07:31:21;;;;;;;;;;;16.90;99.90;;;;;;5055894;28;20003;-64
2023/09/24 07:33:50;;;;;;;;;;;16.90;99.90;;;;;;5055931;28;19912;-64
2023/09/24 07:36:16;;;;;;;;;;;16.90;99.90;;;;;;5038071;28;19915;-63
2023/09/24 07:38:42;;;;;;;;;;;17.00;99.90;;;;;;5055884;28;19931;-64
2023/09/24 07:41:09;;;;;;;;;;;17.00;99.90;;;;;;5055720;28;20348;-64
2023/09/24 07:43:36;;;;;;;;;;;17.00;99.90;;;;;;5021375;28;19915;-63
2023/09/24 07:46:02;;;;;;;;;;;17.10;99.90;;;;;;5055821;28;19909;-64
2023/09/24 07:48:28;;;;;;;;;;;17.20;99.90;;;;;;5055659;28;19912;-64
2023/09/24 07:50:54;;;;;;;;;;;17.20;99.90;;;;;;5055796;28;19991;-64
2023/09/24 07:53:22;;;;;;;;;;;17.20;99.90;;;;;;5055633;28;20370;-64
2023/09/24 07:55:58;;;;;;;;;;;17.20;99.90;;;;;;5037863;28;19912;-64
2023/09/24 07:58:24;;;;;;;;;;;17.20;99.90;;;;;;5062264;28;20267;-64
2023/09/24 08:00:50;;;;;;;;;;;17.10;99.90;;;;;;5074498;28;19909;-64
2023/09/24 08:03:17;;;;;;;;;;;17.00;99.90;;;;;;5075389;28;20015;-65
2023/09/24 08:05:43;;;;;;;;;;;16.70;99.90;;;;;;5074357;28;19958;-64
2023/09/24 08:08:08;;;;;;;;;;;16.70;99.90;;;;;;5057640;28;19912;-64
2023/09/24 08:10:34;;;;;;;;;;;16.60;99.90;;;;;;5076179;28;19911;-64
2023/09/24 08:13:02;;;;;;;;;;;16.50;99.90;;;;;;5079444;28;19908;-64
2023/09/24 08:15:28;;;;;;;;;;;16.40;99.90;;;;;;5079439;28;19905;-64
2023/09/24 08:17:54;;;;;;;;;;;16.30;99.90;;;;;;5079571;28;20250;-64
2023/09/24 08:20:20;;;;;;;;;;;16.10;99.90;;;;;;5078272;28;19909;-64
2023/09/24 08:22:46;;;;;;;;;;;16.10;99.90;;;;;;5078091;28;19920;-64
2023/09/24 08:25:12;;;;;;;;;;;16.00;99.90;;;;;;5044854;28;20297;-64
2023/09/24 08:27:37;;;;;;;;;;;16.00;99.90;;;;;;5079215;28;19958;-64
2023/09/24 08:30:03;;;;;;;;;;;15.90;99.90;;;;;;5078966;28;19914;-64
2023/09/24 08:32:29;;;;;;;;;;;16.00;99.90;;;;;;5061254;28;19915;-64
2023/09/24 08:34:55;;;;;;;;;;;16.00;99.90;;;;;;5077910;28;20401;-64
2023/09/24 08:37:21;;;;;;;;;;;16.00;99.90;;;;;;5078878;28;19909;-64
2023/09/24 08:39:46;;;;;;;;;;;15.90;99.90;;;;;;5079090;28;19916;-64
2023/09/24 08:42:14;;;;;;;;;;;16.00;99.90;;;;;;5078982;28;20277;-64
2023/09/24 08:44:40;;;;;;;;;;;16.10;99.90;;;;;;5061016;28;19905;-64
2023/09/24 08:47:06;;;;;;;;;;;16.00;99.90;;;;;;5060916;28;20047;-64
2023/09/24 08:49:32;;;;;;;;;;;15.90;99.90;;;;;;5078672;28;20238;-63
2023/09/24 08:51:59;;;;;;;;;;;16.00;99.90;;;;;;5078710;28;19911;-64
2023/09/24 08:54:24;;;;;;;;;;;16.00;99.90;;;;;;5060752;28;19916;-64
2023/09/24 08:56:50;;;;;;;;;;;15.90;99.90;;;;;;5078723;28;19908;-64
2023/09/24 08:59:16;;;;;;;;;;;15.90;99.90;;;;;;5064549;28;19913;-64
2023/09/24 09:01:51;;;;;;;;;;;16.00;99.90;;;;;;5058926;28;20434;-64
2023/09/24 09:04:17;;;;;;;;;;;16.00;99.90;;;;;;5058556;28;19912;-64
2023/09/24 09:06:42;;;;;;;;;;;16.00;99.90;;;;;;5058400;28;20346;-64
2023/09/24 09:09:10;;;;;;;;;;;16.00;99.90;;;;;;5042833;28;19919;-64
2023/09/24 09:11:43;;;;;;;;;;;16.00;99.90;;;;;;5058471;28;19909;-64
2023/09/24 09:14:09;;;;;;;;;;;16.00;99.90;;;;;;5058474;28;19943;-64
2023/09/24 09:16:57;;;;;;;;;;;15.90;99.90;;;;;;5058467;28;19905;-64
2023/09/24 09:19:25;;;;;;;;;;;16.00;99.90;;;;;;5058332;28;20361;-64
2023/09/24 09:21:51;;;;;;;;;;;16.00;99.90;;;;;;5057920;28;20270;-64
2023/09/24 09:24:24;;;;;;;;;;;15.90;99.90;;;;;;5040251;28;20390;-64
2023/09/24 09:26:57;;;;;;;;;;;15.90;99.90;;;;;;5058251;28;19909;-64
2023/09/24 09:29:24;;;;;;;;;;;15.70;99.90;;;;;;5058098;28;19942;-64
2023/09/24 09:31:50;;;;;;;;;;;15.60;99.90;;;;;;5058124;28;19931;-64
2023/09/24 09:34:16;;;;;;;;;;;15.80;99.90;;;;;;5058269;28;20376;-64
2023/09/24 09:36:42;;;;;;;;;;;15.70;99.90;;;;;;5042704;28;19909;-63
2023/09/24 09:39:09;;;;;;;;;;;15.80;99.90;;;;;;5040288;28;19912;-64
2023/09/24 09:41:35;;;;;;;;;;;15.80;99.90;;;;;;5058087;28;19909;-64
2023/09/24 09:44:05;;;;;;;;;;;16.00;99.90;;;;;;5039820;28;20376;-64
2023/09/24 09:46:34;;;;;;;;;;;16.20;99.90;;;;;;5057884;28;20009;-63
2023/09/24 09:49:02;;;;;;;;;;;16.20;99.90;;;;;;5057655;28;19908;-64
2023/09/24 09:51:32;;;;;;;;;;;16.10;99.90;;;;;;5039921;28;19912;-64
2023/09/24 09:54:03;;;;;;;;;;;16.30;99.90;;;;;;5039686;28;19927;-64
2023/09/24 09:56:28;;;;;;;;;;;16.30;99.90;;;;;;5039753;28;19909;-64
2023/09/24 09:58:54;;;;;;;;;;;16.40;99.90;;;;;;5050444;28;19915;-64
2023/09/24 10:01:20;;;;;;;;;;;16.40;99.90;;;;;;5059611;28;19913;-64
2023/09/24 10:03:50;;;;;;;;;;;16.40;99.90;;;;;;5077335;28;19993;-64
2023/09/24 10:06:16;;;;;;;;;;;16.50;99.90;;;;;;5059366;28;19916;-63
2023/09/24 10:08:43;;;;;;;;;;;16.60;99.90;;;;;;5059470;28;19962;-64
2023/09/24 10:11:09;;;;;;;;;;;16.70;99.90;;;;;;5043706;28;19915;-64
2023/09/24 10:13:46;;;;;;;;;;;16.70;99.90;;;;;;5075891;28;19915;-64
2023/09/24 10:16:32;;;;;;;;;;;16.90;99.90;;;;;;5059346;28;19909;-64
2023/09/24 10:19:07;;;;;;;;;;;16.80;99.90;;;;;;5058901;28;19923;-64
2023/09/24 10:21:37;;;;;;;;;;;16.70;99.90;;;;;;5059129;28;19908;-64
2023/09/24 10:24:02;;;;;;;;;;;16.80;99.90;;;;;;5076937;28;20388;-64
2023/09/24 10:26:50;;;;;;;;;;;16.80;99.90;;;;;;5076996;28;19904;-64
2023/09/24 10:29:16;;;;;;;;;;;16.70;99.90;;;;;;5076819;28;20054;-64
2023/09/24 10:32:06;;;;;;;;;;;16.60;99.90;;;;;;5076860;28;19905;-64
2023/09/24 10:34:50;;;;;;;;;;;16.60;99.90;;;;;;5036036;28;19909;-64
2023/09/24 10:37:16;;;;;;;;;;;16.50;99.90;;;;;;5076792;28;19915;-64
2023/09/24 10:42:26;;;;;;;;;;;16.30;99.90;;;;;;5058824;28;19912;-64
2023/09/24 10:45:07;;;;;;;;;;;16.20;99.90;;;;;;5076594;28;19908;-64
2023/09/24 10:47:36;;;;;;;;;;;16.20;99.90;;;;;;5058977;28;19962;-64
2023/09/24 10:50:03;;;;;;;;;;;16.30;99.90;;;;;;5076574;28;19962;-64
2023/09/24 10:52:44;;;;;;;;;;;16.20;99.90;;;;;;5076508;28;19908;-64
2023/09/24 10:55:10;;;;;;;;;;;16.10;99.90;;;;;;5058564;28;19916;-64
2023/09/24 10:57:37;;;;;;;;;;;16.00;99.90;;;;;;5074906;28;19974;-64
2023/09/24 11:00:03;;;;;;;;;;;16.00;99.90;;;;;;5056465;28;19909;-64
2023/09/24 11:02:28;;;;;;;;;;;16.00;99.90;;;;;;5021945;28;19908;-64
2023/09/24 11:05:00;;;;;;;;;;;16.00;99.90;;;;;;5038446;28;19909;-64
2023/09/24 11:07:25;;;;;;;;;;;16.00;99.90;;;;;;5056238;28;20362;-64
2023/09/24 11:09:51;;;;;;;;;;;16.00;99.90;;;;;;5055945;28;19909;-63
2023/09/24 11:12:17;;;;;;;;;;;16.00;99.90;;;;;;5038420;28;19912;-64
2023/09/24 11:14:52;;;;;;;;;;;16.10;99.90;;;;;;5056059;28;19916;-64
2023/09/24 11:17:18;;;;;;;;;;;16.10;99.90;;;;;;5056181;28;19908;-64
2023/09/24 11:19:48;;;;;;;;;;;16.20;99.90;;;;;;5038193;28;20277;-64
2023/09/24 11:22:21;;;;;;;;;;;16.30;99.90;;;;;;5054940;28;20054;-64
2023/09/24 11:25:06;;;;;;;;;;;16.40;99.90;;;;;;5056113;28;19935;-64
2023/09/24 11:27:33;;;;;;;;;;;16.40;99.90;;;;;;5056048;28;19947;-64
2023/09/24 11:29:59;;;;;;;;;;;16.40;99.90;;;;;;5055906;28;19916;-64
2023/09/24 11:32:27;;;;;;;;;;;16.40;99.90;;;;;;5038034;28;19931;-64
2023/09/24 11:35:13;;;;;;;;;;;16.40;99.90;;;;;;5055933;28;19917;-64
2023/09/24 11:37:49;;;;;;;;;;;16.50;99.90;;;;;;5037801;28;19909;-63
2023/09/24 11:40:27;;;;;;;;;;;16.60;99.90;;;;;;5055838;28;19909;-64
2023/09/24 11:42:57;;;;;;;;;;;16.70;99.90;;;;;;5055680;28;20423;-64
2023/09/24 11:45:40;;;;;;;;;;;16.80;99.90;;;;;;5054722;28;19962;-63
2023/09/24 11:48:07;;;;;;;;;;;17.00;99.90;;;;;;5037885;28;19913;-64
2023/09/24 11:50:32;;;;;;;;;;;17.10;99.90;;;;;;5055667;28;19948;-64
2023/09/24 11:52:58;;;;;;;;;;;17.20;99.90;;;;;;5055640;28;19909;-64
2023/09/24 11:55:24;;;;;;;;;;;17.40;99.90;;;;;;5055828;28;19904;-64
2023/09/24 11:57:50;;;;;;;;;;;17.50;99.90;;;;;;5057596;28;19909;-64
2023/09/24 12:00:18;;;;;;;;;;;17.50;99.90;;;;;;5075734;28;20011;-64
2023/09/24 12:02:43;;;;;;;;;;;17.40;99.90;;;;;;5074469;28;19909;-64
2023/09/24 12:05:09;;;;;;;;;;;17.50;99.90;;;;;;5075657;28;19961;-64
2023/09/24 12:07:35;;;;;;;;;;;17.50;99.90;;;;;;5075405;28;20354;-64
2023/09/24 12:10:01;;;;;;;;;;;17.20;99.90;;;;;;5075441;28;19908;-64
2023/09/24 12:12:27;;;;;;;;;;;17.30;99.90;;;;;;5075452;28;19920;-64
2023/09/24 12:14:53;;;;;;;;;;;17.30;99.90;;;;;;5074362;28;20281;-64
2023/09/24 12:17:22;;;;;;;;;;;17.30;99.90;;;;;;5075460;28;19959;-64
2023/09/24 12:19:48;;;;;;;;;;;17.20;99.90;;;;;;5075734;28;19908;-64
2023/09/24 12:22:15;;;;;;;;;;;17.20;99.90;;;;;;5057523;28;19971;-64
2023/09/24 12:24:41;;;;;;;;;;;17.10;99.90;;;;;;5075431;28;19915;-64
2023/09/24 12:27:07;;;;;;;;;;;17.00;99.90;;;;;;5074077;28;20357;-64
2023/09/24 12:29:33;;;;;;;;;;;16.90;99.90;;;;;;5057336;28;19962;-64
2023/09/24 12:31:59;;;;;;;;;;;16.70;99.90;;;;;;5075370;28;19913;-64
2023/09/24 12:34:25;;;;;;;;;;;16.70;99.90;;;;;;5057342;28;20058;-64
2023/09/24 12:36:51;;;;;;;;;;;16.70;99.90;;;;;;5074021;28;19909;-64
2023/09/24 12:39:19;;;;;;;;;;;16.80;99.90;;;;;;5075298;28;19913;-64
2023/09/24 12:41:49;;;;;;;;;;;16.80;99.90;;;;;;5075250;28;20412;-64
2023/09/24 12:44:15;;;;;;;;;;;16.70;99.90;;;;;;5073945;28;20318;-64
2023/09/24 12:46:41;;;;;;;;;;;16.60;99.90;;;;;;5075327;28;19952;-64
2023/09/24 12:49:07;;;;;;;;;;;16.50;99.90;;;;;;5075144;28;20381;-64
2023/09/24 12:51:33;;;;;;;;;;;16.60;99.90;;;;;;5075225;28;19916;-64
2023/09/24 12:53:59;;;;;;;;;;;16.70;99.90;;;;;;5075099;28;19908;-64
2023/09/24 12:56:25;;;;;;;;;;;16.80;99.90;;;;;;5075614;28;19908;-64
2023/09/24 12:58:51;;;;;;;;;;;16.90;99.90;;;;;;5066861;28;19916;-64
2023/09/24 13:01:17;;;;;;;;;;;17.20;99.90;;;;;;5058704;28;20436;-63
2023/09/24 13:03:43;;;;;;;;;;;17.20;99.90;;;;;;5040792;28;19972;-64
2023/09/24 13:06:19;;;;;;;;;;;17.40;99.90;;;;;;5058417;28;19916;-64
2023/09/24 13:08:45;;;;;;;;;;;17.50;99.90;;;;;;5058404;28;19987;-64
2023/09/24 13:11:12;;;;;;;;;;;17.20;99.90;;;;;;5040501;28;19958;-64
2023/09/24 13:13:38;;;;;;;;;;;17.20;99.90;;;;;;5040505;28;19952;-64
2023/09/24 13:16:04;;;;;;;;;;;17.30;99.90;;;;;;5040710;28;19908;-64
2023/09/24 13:18:30;;;;;;;;;;;17.40;99.90;;;;;;5058312;28;19911;-64
2023/09/24 13:20:57;;;;;;;;;;;17.50;99.90;;;;;;5058328;28;19909;-64
2023/09/24 13:23:23;;;;;;;;;;;17.60;99.90;;;;;;5040053;28;19936;-64
2023/09/24 13:25:48;;;;;;;;;;;17.30;99.90;;;;;;5058255;28;19916;-64
2023/09/24 13:28:14;;;;;;;;;;;17.30;99.90;;;;;;5040117;28;19999;-64
2023/09/24 13:30:40;;;;;;;;;;;17.40;99.90;;;;;;5040152;28;19905;-64
2023/09/24 13:33:06;;;;;;;;;;;17.40;99.90;;;;;;5058014;28;19909;-64
2023/09/24 13:35:37;;;;;;;;;;;17.40;99.90;;;;;;5040173;28;19909;-64
2023/09/24 13:38:02;;;;;;;;;;;17.30;99.90;;;;;;5040039;28;19913;-64
2023/09/24 13:40:28;;;;;;;;;;;17.30;99.90;;;;;;5040043;28;19952;-64
2023/09/24 13:42:55;;;;;;;;;;;17.20;99.90;;;;;;5056553;28;20008;-64
2023/09/24 13:45:21;;;;;;;;;;;17.20;99.90;;;;;;5039870;28;19909;-64
2023/09/24 13:47:47;;;;;;;;;;;17.20;99.90;;;;;;5057724;28;19920;-64
2023/09/24 13:50:13;;;;;;;;;;;17.00;99.90;;;;;;5057705;28;19909;-64
2023/09/24 13:52:39;;;;;;;;;;;17.00;99.90;;;;;;5039858;28;20342;-64
2023/09/24 13:55:05;;;;;;;;;;;16.80;99.90;;;;;;5057720;28;19908;-64
2023/09/24 13:57:31;;;;;;;;;;;16.90;99.90;;;;;;5057655;28;19924;-64
2023/09/24 13:59:57;;;;;;;;;;;17.00;99.90;;;;;;5059192;28;19919;-64
2023/09/24 14:02:23;;;;;;;;;;;17.00;99.90;;;;;;5077570;28;19916;-64
2023/09/24 14:04:49;;;;;;;;;;;17.00;99.90;;;;;;5077418;28;19950;-64
2023/09/24 14:07:16;;;;;;;;;;;17.10;99.90;;;;;;5077270;28;20042;-64
2023/09/24 14:12:26;;;;;;;;;;;17.00;99.90;;;;;;5062125;28;20373;-64
2023/09/24 14:14:55;;;;;;;;;;;17.10;99.90;;;;;;5077267;28;19958;-64
2023/09/24 14:17:21;;;;;;;;;;;17.20;99.90;;;;;;5077224;28;20438;-64
2023/09/24 14:19:47;;;;;;;;;;;17.20;99.90;;;;;;5077019;28;19913;-64
2023/09/24 14:22:14;;;;;;;;;;;17.20;99.90;;;;;;5077171;28;19977;-64